Record high temperature 35.7°C Record low temperature -13.1°C Record high gust 62.9 km/h Record high average 34.6 km/h Record daily rain 34.8 mm Record low windchill -16.1°C Record high barometer 1041.5 hPa Record low barometer 980.8 hPa
Daily high pressure 1017.9 hPa Daily low pressure 1011.0 hPa Daily low windchill 14.1°C Daily high heat index 29.5°C Daily high gust speed 14.9 kmh SO Daily high average speed 10.9 kmh OSO
Wetterdaten
LETZTE AKTUALISIERUNG UM: 21:15 DATUM: 23 Juli 2021, time of next update: 21:30
Aktuelles WetterClear/Night Aktuelle Temperatur 23.7°C (74.6°F) (Hitze-Index 25.0°C ), Apparent temp 25.5°C
Höchsttemperatur (seit Mitternacht)29.4°C um: 17:08 Tiefsttemperatur (seit Mitternacht)14.1°C um: 06:12
Windgeschwindigkeit (10 Minuten )0.4 kmh (0.2 kts) Windrichtung (Dir) (10 Minuten )ENE (68°)
Hitze-Index 25.0°C Windspitzen (letzte Std)6.6 kmh (3.6 kts) um: 20:15
Windspitzen (seit Mitternacht)14.9 kmh (8.1 kts) um: 13:17 Höchstes Windmittel / Minute (seit Mitternacht)10.9 kmh (5.9 kts) um: 13:18
Regenmenge (letzte Std)0.0 mm Regenmenge (seit Mitternacht)0.0 mm (0.00 in.)---
Regenmenge diesen Monat 52.8 mm (2.08 in.) Regenmenge seit Jahresbeginn 437.6 mm (17.23 in.)
Höchste Regenmenge pro Minute (letzte Std)0.0 mm/min Höchste Regenmenge pro Stunde (letzte 6 Std)0.0 mm/stunde
Regenmenge Gestern 0.0 mm Taupunkt 16.0°C (Wet Bulb :18.9°C )
Luftfeuchtigkeit 62 %, Humidex 28.3°C Aktueller Luftdruck (auf Meereshöhe bezogen)1011.1 hPa
Luftdrucktendenz -0.0 hPa (letzte Std) Trend (letzte 1 Std)gleichbleibend
Luftdrucktendenz (letzte 12 Std)-6.0 hPa Luftdrucktendenz (letzte 6 Std)-2.2 hPa
Maximum Soil temperature (seit Mitternacht) 23.3°C Minimum Soil temperature(seit Mitternacht)8.3°C
Current Soil temperature 8°C
Current Solar 0 W/m²
Maximum solar (seit Mitternacht) 886 W/m² Minimum solar(seit Mitternacht)0 W/m²
Current 12:04 hours of sunshine today, current sky: Nicht bestimmbar (Nachtzeit)/Haze/Clear
Sunshine hours for the year: 910:42 hrs Sunshine hours for the month: 132:48 hrs
Current evapotranspiration rate 5.8 mm per day. Yesterday's reading 5.6

Diese Seite wurde mit aktuellen Daten einer DAVIS VP Wetterstation erstellt. Drücken Sie bitte auf "Aktualisieren" oder "neu laden" um die neuesten Daten zu erhalten.


Latest Web Cam Image


Weather report/warning/Metars

Stuttgart-Echterdingen, Germany (EDDS) 48-41N 009-13E 391M
Jul 23, 2021 - 02:50 PM EDT / 2021.07.23 1850 UTC
Wind: from the NE (050 degrees) at 5 MPH (4 KT):0
Visibility: greater than 7 mile(s):0
Temperature: 75 F (24 C)
Dew Point: 57 F (14 C)
Relative Humidity: 53%
Pressure (altimeter): 29.91 in. Hg (1013 hPa)
ob: EDDS 231850Z 05004KT CAVOK 24/14 Q1013 NOSIG
cycle: 19
Augsburg, Germany (EDMA) 48-26N 010-56E 463M
Jul 23, 2021 - 02:50 PM EDT / 2021.07.23 1850 UTC
Wind: from the NE (050 degrees) at 5 MPH (4 KT):0
Visibility: greater than 7 mile(s):0
Temperature: 68 F (20 C)
Dew Point: 60 F (16 C)
Relative Humidity: 77%
Pressure (altimeter): 29.94 in. Hg (1014 hPa)
ob: EDMA 231850Z 05004KT CAVOK 20/16 Q1014
cycle: 19
Nuernberg, Germany (EDDN) 49-30N 011-03E 318M
Jul 23, 2021 - 02:50 PM EDT / 2021.07.23 1850 UTC
Wind: from the NNE (020 degrees) at 5 MPH (4 KT):0
Visibility: greater than 7 mile(s):0
Temperature: 75 F (24 C)
Dew Point: 57 F (14 C)
Relative Humidity: 53%
Pressure (altimeter): 29.94 in. Hg (1014 hPa)
ob: EDDN 231850Z 02004KT CAVOK 24/14 Q1014 NOSIG
cycle: 19
Berlin-Tegel, Germany (EDDT) 52-34N 013-19E 37M
Nov 09, 2020 - 01:50 AM EST / 2020.11.09 0650 UTC
Wind: from the E (090 degrees) at 7 MPH (6 KT) (direction variable):0
Visibility: 1 mile(s):0
Sky conditions: overcast
Weather: mist
Temperature: 42 F (6 C)
Dew Point: 41 F (5 C)
Relative Humidity: 93%
Pressure (altimeter): 30.33 in. Hg (1027 hPa)
ob: EDDT 090650Z 09006KT 050V120 3000 BR OVC003 06/05 Q1027
cycle: 7
Friedrichshafen, Germany (EDNY) 47-40N 009-31E 424M
Jul 23, 2021 - 02:50 PM EDT / 2021.07.23 1850 UTC
Wind: Variable at 1 MPH (1 KT):0
Visibility: greater than 7 mile(s):0
Temperature: 71 F (22 C)
Dew Point: 60 F (16 C)
Relative Humidity: 68%
Pressure (altimeter): 29.91 in. Hg (1013 hPa)
ob: EDNY 231850Z VRB01KT CAVOK 22/16 Q1013
cycle: 19
Hamburg-Finkenwerder, Germany (EDHI) 53-32N 009-50E 13M
Jul 23, 2021 - 02:50 PM EDT / 2021.07.23 1850 UTC
Wind: from the NNW (340 degrees) at 5 MPH (4 KT) (direction variable):0
Visibility: greater than 7 mile(s):0
Sky conditions: mostly clear
Temperature: 64 F (18 C)
Dew Point: 57 F (14 C)
Relative Humidity: 77%
Pressure (altimeter): 30.00 in. Hg (1016 hPa)
ob: EDHI 231850Z 34004KT 300V010 9999 FEW019 18/14 Q1016
cycle: 19
Amsterdam Airport Schiphol, Netherlands (EHAM) 52-18N 004-46E -2M
Jul 23, 2021 - 02:55 PM EDT / 2021.07.23 1855 UTC
Wind: from the NE (050 degrees) at 9 MPH (8 KT):0
Visibility: greater than 7 mile(s):0
Sky conditions: mostly clear
Temperature: 66 F (19 C)
Dew Point: 57 F (14 C)
Relative Humidity: 72%
Pressure (altimeter): 29.94 in. Hg (1014 hPa)
ob: EHAM 231855Z 05008KT 9999 FEW027 19/14 Q1014 NOSIG
cycle: 19
Stockholm/Skavsta, Sweden (ESKN) 58-47N 016-55E
Jul 23, 2021 - 02:50 PM EDT / 2021.07.23 1850 UTC
Wind: from the SE (140 degrees) at 7 MPH (6 KT):0
Visibility: greater than 7 mile(s):0
Temperature: 66 F (19 C)
Dew Point: 55 F (13 C)
Relative Humidity: 68%
Pressure (altimeter): 30.00 in. Hg (1016 hPa)
ob: ESKN 231850Z 14006KT CAVOK 19/13 Q1016
cycle: 19
Ramstein, Germany (ETAR) 49-26N 007-36E 237M
Jul 23, 2021 - 02:56 PM EDT / 2021.07.23 1856 UTC
Wind: from the E (100 degrees) at 5 MPH (4 KT):0
Visibility: 3 mile(s):0
Sky conditions: clear
Weather: haze
Temperature: 69.4 F (20.8 C)
Dew Point: 60.1 F (15.6 C)
Relative Humidity: 72%
Pressure (altimeter): 29.89 in. Hg (1012 hPa)
ob: ETAR 231856Z AUTO 10004KT 6000 HZ CLR 21/16 A2989 RMK AO2 SLP118 T02080156 
cycle: 19
Laupheim, Germany (ETHL) 48-13N 009-55E 550M
Jul 23, 2021 - 02:20 PM EDT / 2021.07.23 1820 UTC
Wind: from the ENE (060 degrees) at 6 MPH (5 KT):0
Visibility: greater than 7 mile(s):0
Sky conditions: mostly cloudy
Temperature: 73 F (23 C)
Dew Point: 57 F (14 C)
Relative Humidity: 56%
Pressure (altimeter): 29.94 in. Hg (1014 hPa)
ob: ETHL 231820Z 06005KT 9999 FEW220 BKN300 23/14 Q1014 BLU+
cycle: 18
Gran Canaria - Canary Islands, Spain (GCLP) 27-56N 015-23W 47M
Jul 23, 2021 - 03:00 PM EDT / 2021.07.23 1900 UTC
Wind: from the N (010 degrees) at 33 MPH (29 KT):0
Visibility: greater than 7 mile(s):0
Sky conditions: partly cloudy
Temperature: 75 F (24 C)
Dew Point: 66 F (19 C)
Relative Humidity: 73%
Pressure (altimeter): 29.88 in. Hg (1012 hPa)
ob: GCLP 231900Z 01029KT 9999 FEW020 SCT025 24/19 Q1012 NOSIG
cycle: 19
Hurguada, Egypt (HEGN) 27-09N 033-43E 14M
Jul 23, 2021 - 03:00 PM EDT / 2021.07.23 1900 UTC
Wind: from the NNW (330 degrees) at 16 MPH (14 KT):0
Visibility: greater than 7 mile(s):0
Temperature: 91 F (33 C)
Dew Point: 55 F (13 C)
Relative Humidity: 29%
Pressure (altimeter): 29.62 in. Hg (1003 hPa)
ob: HEGN 231900Z 33014KT CAVOK 33/13 Q1003 NOSIG
cycle: 19
Chicago / Meigs, IL, United States (KCGX) 41-52N 087-36W
Jun 18, 2008 - 01:45 PM EDT / 2008.06.18 1745 UTC
Wind: from the NW (310 degrees) at 6 MPH (5 KT):0
Visibility: 15 mile(s):0
Sky conditions: overcast
Temperature: 57 F (14 C)
Dew Point: 51 F (11 C)
Relative Humidity: 82%
Pressure (altimeter): 29.89 in. Hg (1012 hPa)
ob: KCGX 181745Z 31005KT 15SM BKN014 OVC030 14/11 A2989
cycle: 18
Paris-Aeroport Charles De Gaulle, France (LFPG) 49-01N 002-32E 109M
Jul 23, 2021 - 03:00 PM EDT / 2021.07.23 1900 UTC
Wind: from the E (080 degrees) at 12 MPH (10 KT):0
Visibility: greater than 7 mile(s):0
Temperature: 78 F (26 C)
Dew Point: 57 F (14 C)
Relative Humidity: 47%
Pressure (altimeter): 29.80 in. Hg (1009 hPa)
ob: LFPG 231900Z 08010KT CAVOK 26/14 Q1009 NOSIG
cycle: 19
Hyeres, France (LFTH) 43-06N 006-09E 4M
Jul 23, 2021 - 03:00 PM EDT / 2021.07.23 1900 UTC
Wind: Variable at 2 MPH (2 KT):0
Visibility: greater than 7 mile(s):0
Temperature: 77 F (25 C)
Dew Point: 68 F (20 C)
Relative Humidity: 73%
Pressure (altimeter): 29.91 in. Hg (1013 hPa)
ob: LFTH 231900Z AUTO VRB02KT CAVOK 25/20 Q1013 NOSIG
cycle: 19



Die Wetterdaten werden alle 2 Minuten gespeichert, aber die Datenübertragung findet jede Minute statt. Die beste Ansicht wird in einer Auflösung von 800 x 600 und "True colour" erzielt. Linie zeigt die relative Luftfeuchtigkeit an.

Drücken Sie bitte auf "Aktualisieren" in Ihrem Browser, um die aktuellsten Daten zu erhalten.

Klicken Sie hier, um eine Übersicht der Durchschnitts- u. Extremwerte für den Monat zu erhalten
Created by "Weather Display" software version 10.37S at this start time/date 16:04:37 22.07.2021